Time;durP1;ratioP1;P1;durP2;ratioP2;P2;SDS_P1;SDS_P2;PMS_P1;PMS_P2;Temp;Humidity;BMP_temperature;BMP_pressure;BME280_temperature;BME280_humidity;BME280_pressure;Samples;Min_cycle;Max_cycle;Signal;HPM_P1;HPM_P2
2022/01/22 00:00:31;;;;;;;14.00;7.30;;;5.30;99.90;;;;;;5075669;28;20202;-86
2022/01/22 00:02:57;;;;;;;13.13;7.43;;;5.40;99.90;;;;;;5056777;28;20634;-84
2022/01/22 00:05:23;;;;;;;12.20;8.07;;;5.40;99.90;;;;;;5056969;28;20638;-85
2022/01/22 00:07:50;;;;;;;11.40;8.40;;;5.50;99.90;;;;;;5069127;28;20203;-85
2022/01/22 00:10:19;;;;;;;15.47;7.97;;;5.40;99.90;;;;;;5056935;28;20428;-84
2022/01/22 00:15:18;;;;;;;20.53;8.50;;;5.40;99.90;;;;;;5075053;28;20439;-84
2022/01/22 00:17:45;;;;;;;12.63;7.63;;;5.40;99.90;;;;;;5056355;28;20424;-84
2022/01/22 00:20:12;;;;;;;18.97;7.17;;;5.40;99.90;;;;;;5056540;28;20545;-85
2022/01/22 00:22:38;;;;;;;12.37;8.40;;;5.40;99.90;;;;;;5074102;28;20428;-85
2022/01/22 00:25:08;;;;;;;13.13;9.03;;;5.40;99.90;;;;;;5074063;28;20432;-85
2022/01/22 00:27:35;;;;;;;10.20;8.03;;;5.40;99.90;;;;;;5074430;28;20401;-85
2022/01/22 00:30:01;;;;;;;11.43;8.00;;;5.40;99.90;;;;;;5074322;28;20416;-84
2022/01/22 00:32:27;;;;;;;12.97;7.80;;;5.40;99.90;;;;;;5056278;28;20451;-85
2022/01/22 00:34:52;;;;;;;17.27;8.60;;;5.30;99.90;;;;;;5056134;28;20578;-85
2022/01/22 00:37:18;;;;;;;11.17;7.50;;;5.40;99.90;;;;;;5056194;28;20193;-86
2022/01/22 00:39:43;;;;;;;14.80;7.77;;;5.40;99.90;;;;;;5056220;28;20673;-85
2022/01/22 00:42:13;;;;;;;13.93;7.73;;;5.40;99.90;;;;;;5074382;28;20265;-84
2022/01/22 00:44:39;;;;;;;12.53;7.63;;;5.50;99.90;;;;;;5056328;28;20198;-85
2022/01/22 00:47:05;;;;;;;11.37;8.23;;;5.50;99.90;;;;;;5055928;28;20868;-85
2022/01/22 00:49:31;;;;;;;13.47;8.23;;;5.40;99.90;;;;;;5056358;28;20434;-85
2022/01/22 00:51:57;;;;;;;12.70;8.30;;;5.40;99.90;;;;;;5073775;28;20178;-86
2022/01/22 00:54:23;;;;;;;16.43;9.80;;;5.40;99.90;;;;;;5074144;28;20436;-85
2022/01/22 00:56:49;;;;;;;12.83;8.90;;;5.40;99.90;;;;;;5055562;28;20510;-84
2022/01/22 00:59:15;;;;;;;14.37;9.40;;;5.40;99.90;;;;;;5055714;28;20206;-84
2022/01/22 01:01:40;;;;;;;17.73;10.10;;;5.40;99.90;;;;;;5055839;28;20432;-86
2022/01/22 01:04:09;;;;;;;18.20;10.40;;;5.30;99.90;;;;;;5073956;28;20216;-84
2022/01/22 01:06:35;;;;;;;15.83;9.63;;;5.20;99.90;;;;;;5055676;28;20177;-85
2022/01/22 01:09:02;;;;;;;23.90;11.87;;;5.30;99.90;;;;;;5055498;28;20430;-85
2022/01/22 01:11:31;;;;;;;14.63;11.00;;;5.30;99.90;;;;;;5055743;28;20799;-84
2022/01/22 01:14:00;;;;;;;15.83;11.00;;;5.30;99.90;;;;;;5073790;28;20964;-84
2022/01/22 01:17:24;;;;;;;14.27;10.17;;;5.20;99.90;;;;;;5055458;28;20423;-85
2022/01/22 01:33:02;;;;;;;22.33;13.03;;;5.10;99.90;;;;;;5073386;28;20504;-84
2022/01/22 01:35:30;;;;;;;18.90;12.20;;;4.90;99.90;;;;;;5072855;28;20438;-84
2022/01/22 01:37:58;;;;;;;20.37;13.00;;;4.90;99.90;;;;;;5054981;28;20435;-84
2022/01/22 01:40:26;;;;;;;17.60;12.30;;;4.90;99.90;;;;;;5056570;28;20468;-87
2022/01/22 01:45:17;;;;;;;28.20;13.57;;;4.90;99.90;;;;;;5073542;28;20432;-86
2022/01/22 01:47:46;;;;;;;21.37;13.40;;;4.90;99.90;;;;;;5072730;28;20189;-85
2022/01/22 01:50:11;;;;;;;20.83;14.00;;;4.80;99.90;;;;;;5072692;28;20225;-86
2022/01/22 01:55:13;;;;;;;33.97;15.83;;;4.90;99.90;;;;;;5073158;28;20302;-85
2022/01/22 01:57:40;;;;;;;26.87;16.33;;;4.90;99.90;;;;;;5073143;28;20404;-85
2022/01/22 02:00:14;;;;;;;18.50;13.70;;;4.90;99.90;;;;;;5072917;28;20457;-86
2022/01/22 02:02:40;;;;;;;23.97;13.97;;;4.90;99.90;;;;;;5073219;28;20793;-85
2022/01/22 02:05:09;;;;;;;20.97;13.23;;;4.90;99.90;;;;;;5054915;28;20516;-84
2022/01/22 02:07:38;;;;;;;25.67;14.60;;;4.90;99.90;;;;;;5054938;28;20419;-85
2022/01/22 02:10:06;;;;;;;22.93;12.80;;;5.00;99.90;;;;;;5073095;28;20423;-84
2022/01/22 02:23:42;;;;;;;26.97;14.83;;;4.90;99.90;;;;;;5073343;28;20848;-86
2022/01/22 02:26:10;;;;;;;25.70;14.93;;;4.80;99.90;;;;;;5054644;28;20431;-86
2022/01/22 02:28:37;;;;;;;23.37;15.80;;;4.80;99.90;;;;;;5054352;28;20425;-86
2022/01/22 02:31:16;;;;;;;29.07;16.57;;;4.90;99.90;;;;;;5073172;28;20462;-88
2022/01/22 02:34:04;;;;;;;31.13;16.17;;;4.90;99.90;;;;;;5078213;28;20433;-86
2022/01/22 02:37:12;;;;;;;23.63;15.67;;;4.90;99.90;;;;;;5060276;28;20572;-87
2022/01/22 02:39:56;;;;;;;30.20;16.23;;;5.00;99.90;;;;;;5075149;28;20467;-87
2022/01/22 02:42:13;;;;;;;22.20;14.93;;;5.00;99.90;;;;;;5076614;28;20430;-88
2022/01/22 02:44:46;;;;;;;25.40;15.70;;;5.00;99.90;;;;;;5078976;28;20572;-88
2022/01/22 02:47:15;;;;;;;27.40;18.73;;;4.90;99.90;;;;;;5062054;28;20472;-86
2022/01/22 02:49:41;;;;;;;30.10;17.03;;;5.00;99.90;;;;;;5064226;28;20518;-86
2022/01/22 02:52:08;;;;;;;23.63;16.13;;;5.00;99.90;;;;;;5081929;28;20419;-87
2022/01/22 02:54:36;;;;;;;26.30;15.63;;;5.10;99.90;;;;;;5063820;28;20542;-86
2022/01/22 02:57:02;;;;;;;22.30;15.87;;;5.20;99.90;;;;;;5081330;28;20400;-88
2022/01/22 02:59:28;;;;;;;25.43;15.43;;;5.10;99.90;;;;;;5063336;28;20462;-87
2022/01/22 03:01:54;;;;;;;20.83;14.20;;;5.00;99.90;;;;;;5063449;28;20464;-86
2022/01/22 03:04:20;;;;;;;25.60;16.27;;;5.10;99.90;;;;;;5063255;28;20599;-87
2022/01/22 03:06:47;;;;;;;25.90;15.77;;;5.00;99.90;;;;;;5062405;28;20419;-88
2022/01/22 03:09:15;;;;;;;28.03;17.17;;;5.00;99.90;;;;;;5063552;28;20439;-85
2022/01/22 03:12:01;;;;;;;25.00;14.80;;;5.00;99.90;;;;;;5080541;28;20427;-86
2022/01/22 03:22:31;;;;;;;27.50;17.93;;;5.00;99.90;;;;;;5080584;28;20411;-86
2022/01/22 03:27:41;;;;;;;29.90;16.50;;;5.10;99.90;;;;;;5079720;28;20483;-86
2022/01/22 03:30:07;;;;;;;25.93;16.53;;;5.10;99.90;;;;;;5061319;28;20858;-87
2022/01/22 03:32:40;;;;;;;27.37;16.90;;;5.10;99.90;;;;;;5079889;28;20184;-86
2022/01/22 03:35:24;;;;;;;24.93;15.17;;;5.10;99.90;;;;;;5061931;28;20434;-88
2022/01/22 03:37:53;;;;;;;29.67;17.30;;;5.10;99.90;;;;;;5061548;28;20427;-87
2022/01/22 03:40:25;;;;;;;24.30;15.80;;;5.10;99.90;;;;;;5079573;28;20508;-88
2022/01/22 03:42:53;;;;;;;26.27;16.73;;;5.10;99.90;;;;;;5061056;28;20416;-87
2022/01/22 03:45:19;;;;;;;22.40;14.60;;;5.10;99.90;;;;;;5078845;28;20496;-86
2022/01/22 03:47:45;;;;;;;28.67;16.00;;;5.20;99.90;;;;;;5074884;28;20818;-85
2022/01/22 03:50:14;;;;;;;26.80;15.93;;;5.20;99.90;;;;;;5056816;28;20428;-84
2022/01/22 03:52:40;;;;;;;28.50;17.60;;;5.30;99.90;;;;;;5056912;28;20473;-85
2022/01/22 03:55:10;;;;;;;25.27;15.70;;;5.30;99.90;;;;;;5074931;28;20490;-86
2022/01/22 03:57:36;;;;;;;24.40;14.80;;;5.20;99.90;;;;;;5055857;28;20435;-84
2022/01/22 04:00:05;;;;;;;24.47;17.17;;;5.30;99.90;;;;;;5055999;28;20463;-85
2022/01/22 04:03:27;;;;;;;24.90;15.50;;;5.30;99.90;;;;;;5074551;28;20408;-85
2022/01/22 04:05:17;;;;;;;21.60;15.30;;;5.30;99.90;;;;;;5063494;28;20540;-85
2022/01/22 04:10:26;;;;;;;22.77;14.50;;;5.30;99.90;;;;;;5074618;28;20415;-84
2022/01/22 04:13:00;;;;;;;21.23;14.73;;;5.30;99.90;;;;;;5056447;28;20955;-85
2022/01/22 04:15:29;;;;;;;26.47;16.40;;;5.20;99.90;;;;;;5056200;28;20587;-85
2022/01/22 04:26:55;;;;;;;24.67;16.80;;;5.20;99.90;;;;;;5073878;28;20532;-85
2022/01/22 04:28:53;;;;;;;26.30;16.20;;;5.20;99.90;;;;;;5062801;28;20838;-87
2022/01/22 04:31:19;;;;;;;26.77;16.30;;;5.30;99.90;;;;;;5055932;28;20513;-85
2022/01/22 04:33:45;;;;;;;23.77;15.37;;;5.30;99.90;;;;;;5073821;28;20178;-84
2022/01/22 04:36:11;;;;;;;26.13;17.50;;;5.30;99.90;;;;;;5055653;28;20451;-86
2022/01/22 04:38:38;;;;;;;28.57;17.50;;;5.30;99.90;;;;;;5080527;28;20172;-86
2022/01/22 04:41:05;;;;;;;25.53;15.70;;;5.30;99.90;;;;;;5058347;28;20606;-85
2022/01/22 04:43:33;;;;;;;29.30;16.20;;;5.30;99.90;;;;;;5058197;28;20515;-85
2022/01/22 04:56:42;;;;;;;31.83;19.90;;;5.40;99.90;;;;;;5075633;28;20431;-85
2022/01/22 04:59:08;;;;;;;24.97;14.80;;;5.40;99.90;;;;;;5057853;28;21017;-86
2022/01/22 05:01:33;;;;;;;33.43;16.40;;;5.30;99.90;;;;;;5057882;28;20583;-86
2022/01/22 05:03:59;;;;;;;25.10;15.43;;;5.40;99.90;;;;;;5124832;22;20763;-80
2022/01/22 05:06:26;;;;;;;28.67;15.70;;;5.50;99.90;;;;;;5071195;28;20190;-80
2022/01/22 05:08:52;;;;;;;25.37;16.80;;;5.40;99.90;;;;;;5072632;28;20185;-80
2022/01/22 05:11:18;;;;;;;34.27;18.30;;;5.50;99.90;;;;;;5072618;28;20409;-81
2022/01/22 05:13:44;;;;;;;28.90;18.50;;;5.50;99.90;;;;;;5072728;28;20432;-80
2022/01/22 05:16:09;;;;;;;39.27;18.90;;;5.50;99.90;;;;;;5072518;28;20176;-80
2022/01/22 05:18:42;;;;;;;28.03;18.17;;;5.40;99.90;;;;;;5072439;28;20219;-80
2022/01/22 05:21:12;;;;;;;30.50;17.60;;;5.40;99.90;;;;;;5072477;28;20223;-80
2022/01/22 05:23:39;;;;;;;29.20;19.47;;;5.50;99.90;;;;;;5072515;28;20434;-80
2022/01/22 05:26:10;;;;;;;34.07;19.97;;;5.50;99.90;;;;;;5072382;28;20419;-83
2022/01/22 05:39:24;;;;;;;28.77;18.17;;;5.60;99.90;;;;;;5072491;28;20446;-80
2022/01/22 05:41:51;;;;;;;24.87;16.70;;;5.60;99.90;;;;;;5054315;28;20425;-80
2022/01/22 05:44:17;;;;;;;27.70;18.00;;;5.60;99.90;;;;;;5054281;28;20531;-83
2022/01/22 05:46:43;;;;;;;26.37;18.23;;;5.60;99.90;;;;;;5071994;28;20828;-82
2022/01/22 05:49:09;;;;;;;31.20;18.60;;;5.60;99.90;;;;;;5072099;28;20405;-80
2022/01/22 05:51:37;;;;;;;33.67;18.43;;;5.60;99.90;;;;;;5072115;28;20178;-80
2022/01/22 06:02:07;;;;;;;30.30;18.57;;;5.50;99.90;;;;;;5072349;28;20426;-80
2022/01/22 06:04:34;;;;;;;31.40;19.77;;;5.50;99.90;;;;;;5071817;28;20530;-83
2022/01/22 06:07:00;;;;;;;30.27;20.07;;;5.60;99.90;;;;;;5071699;28;20411;-82
2022/01/22 06:09:26;;;;;;;30.50;18.27;;;5.60;99.90;;;;;;5053947;28;20523;-84
2022/01/22 06:12:14;;;;;;;30.23;18.77;;;5.50;99.90;;;;;;5074647;28;20412;-82
2022/01/22 06:14:40;;;;;;;34.50;18.90;;;5.50;99.90;;;;;;5057036;28;20420;-82
2022/01/22 06:17:06;;;;;;;42.03;18.80;;;5.60;99.90;;;;;;5074887;28;20423;-82
2022/01/22 06:19:31;;;;;;;34.63;18.60;;;5.70;99.90;;;;;;5074923;28;20456;-83
2022/01/22 06:21:57;;;;;;;32.20;19.10;;;5.60;99.90;;;;;;5076356;28;20283;-82
2022/01/22 06:24:23;;;;;;;31.50;19.00;;;5.50;99.90;;;;;;5078889;28;20191;-82
2022/01/22 06:26:49;;;;;;;40.43;20.77;;;5.60;99.90;;;;;;5078675;28;20179;-82
2022/01/22 06:29:15;;;;;;;30.50;18.47;;;5.60;99.90;;;;;;5078733;28;20455;-82
2022/01/22 06:31:41;;;;;;;38.83;18.60;;;5.50;99.90;;;;;;5078081;28;20416;-80
2022/01/22 06:34:07;;;;;;;32.40;19.90;;;5.60;99.90;;;;;;5078527;28;20439;-82
2022/01/22 06:36:33;;;;;;;34.70;19.33;;;5.60;99.90;;;;;;5059875;28;20186;-83
2022/01/22 06:39:11;;;;;;;32.57;19.27;;;5.70;99.90;;;;;;5077689;28;20476;-83
2022/01/22 06:41:47;;;;;;;31.87;20.07;;;5.60;99.90;;;;;;5060082;28;20419;-82
2022/01/22 06:44:14;;;;;;;30.03;19.07;;;5.70;99.90;;;;;;5078108;28;20431;-83
2022/01/22 06:46:42;;;;;;;30.40;18.30;;;5.60;99.90;;;;;;5076622;28;20412;-80
2022/01/22 06:49:07;;;;;;;37.70;20.23;;;5.80;99.90;;;;;;5075529;28;20412;-80
2022/01/22 06:51:34;;;;;;;36.10;19.83;;;5.90;99.90;;;;;;5075467;28;20401;-80
2022/01/22 06:54:01;;;;;;;29.50;19.20;;;5.90;99.90;;;;;;5075323;28;20194;-80
2022/01/22 06:56:29;;;;;;;35.10;19.47;;;5.90;99.90;;;;;;5075138;28;20475;-87
2022/01/22 06:58:54;;;;;;;30.13;20.33;;;5.90;99.90;;;;;;5075195;28;20431;-80
2022/01/22 07:01:20;;;;;;;29.97;19.23;;;5.90;99.90;;;;;;5075216;28;20413;-80
2022/01/22 07:03:45;;;;;;;33.40;19.87;;;5.90;99.90;;;;;;5074881;28;20221;-81
2022/01/22 07:06:11;;;;;;;33.23;19.67;;;5.80;99.90;;;;;;5057193;28;20221;-83
2022/01/22 07:08:36;;;;;;;36.93;20.30;;;5.80;99.90;;;;;;5073573;28;20175;-80
2022/01/22 07:11:02;;;;;;;39.83;20.20;;;5.80;99.90;;;;;;5075421;28;20236;-82
2022/01/22 07:13:28;;;;;;;37.93;21.37;;;5.90;99.90;;;;;;5077415;28;20672;-81
2022/01/22 07:15:53;;;;;;;35.07;20.20;;;5.90;99.90;;;;;;5059981;28;20642;-83
2022/01/22 07:18:19;;;;;;;34.10;19.53;;;5.90;99.90;;;;;;5078266;28;20188;-81
2022/01/22 07:20:45;;;;;;;34.73;19.10;;;5.90;99.90;;;;;;5077667;28;20617;-81
2022/01/22 07:25:55;;;;;;;40.93;23.40;;;5.80;99.90;;;;;;5077871;28;20973;-84
2022/01/22 07:28:21;;;;;;;34.17;21.30;;;5.90;99.90;;;;;;5077262;28;20424;-80
2022/01/22 07:30:48;;;;;;;43.03;21.80;;;5.90;99.90;;;;;;5059414;28;20232;-82
2022/01/22 07:33:14;;;;;;;33.97;21.90;;;5.90;99.90;;;;;;5059277;28;20206;-81
2022/01/22 07:35:40;;;;;;;36.40;20.13;;;5.80;99.90;;;;;;5077438;28;20950;-80
2022/01/22 07:38:06;;;;;;;41.40;20.93;;;5.80;99.90;;;;;;5077754;28;20498;-81
2022/01/22 07:40:32;;;;;;;40.07;19.43;;;5.80;99.90;;;;;;5059810;28;20210;-83
2022/01/22 07:42:58;;;;;;;35.43;20.03;;;5.80;99.90;;;;;;5059460;28;20440;-81
2022/01/22 07:45:23;;;;;;;35.30;20.37;;;5.80;99.90;;;;;;5078330;28;20490;-82
2022/01/22 07:47:49;;;;;;;34.27;19.30;;;5.80;99.90;;;;;;5077786;28;20185;-82
2022/01/22 07:50:14;;;;;;;36.40;19.93;;;5.80;99.90;;;;;;5077682;28;20655;-82
2022/01/22 07:52:40;;;;;;;37.17;21.60;;;5.80;99.90;;;;;;5076546;28;20202;-83
2022/01/22 07:55:07;;;;;;;26.50;18.80;;;5.80;99.90;;;;;;5077696;28;20236;-88
2022/01/22 07:57:33;;;;;;;38.83;21.43;;;5.90;99.90;;;;;;5077123;28;20175;-79
2022/01/22 07:59:59;;;;;;;34.00;19.70;;;5.90;99.90;;;;;;5077649;28;20457;-81
2022/01/22 08:02:25;;;;;;;37.10;18.83;;;5.90;99.90;;;;;;5077217;28;20524;-83
2022/01/22 08:04:50;;;;;;;30.00;17.67;;;6.00;99.90;;;;;;5077182;28;20172;-81
2022/01/22 08:07:16;;;;;;;30.70;19.60;;;6.00;99.90;;;;;;5077004;28;20546;-80
2022/01/22 08:09:45;;;;;;;33.20;18.77;;;5.90;99.90;;;;;;5077370;28;20675;-81
2022/01/22 08:12:10;;;;;;;34.70;19.70;;;5.90;99.90;;;;;;5077224;28;20967;-80
2022/01/22 08:14:36;;;;;;;32.70;18.73;;;5.90;99.90;;;;;;5077061;28;20411;-81
2022/01/22 08:17:02;;;;;;;43.10;21.27;;;5.90;99.90;;;;;;5076538;28;20179;-80
2022/01/22 08:19:27;;;;;;;44.07;23.23;;;5.80;99.90;;;;;;5076874;28;20196;-82
2022/01/22 08:21:53;;;;;;;42.23;21.43;;;5.90;99.90;;;;;;5058757;28;20269;-82
2022/01/22 08:24:22;;;;;;;33.13;20.27;;;5.80;99.90;;;;;;5076693;28;20192;-80
2022/01/22 08:26:54;;;;;;;33.17;20.43;;;6.00;99.90;;;;;;5076693;28;20182;-82
2022/01/22 08:29:19;;;;;;;32.83;20.60;;;5.90;99.90;;;;;;5076586;28;20459;-82
2022/01/22 08:31:50;;;;;;;37.10;19.07;;;6.00;99.90;;;;;;5076275;28;20417;-80
2022/01/22 08:37:00;;;;;;;32.17;18.50;;;6.10;99.90;;;;;;5076341;28;20414;-81
2022/01/22 08:39:27;;;;;;;37.93;19.40;;;6.20;99.90;;;;;;5076429;28;20460;-82
2022/01/22 08:41:52;;;;;;;33.77;19.87;;;6.20;99.90;;;;;;5075733;28;20176;-81
2022/01/22 08:44:18;;;;;;;38.27;19.63;;;6.30;99.90;;;;;;5075876;28;20490;-82
2022/01/22 08:46:44;;;;;;;34.40;18.77;;;6.40;99.90;;;;;;5075435;28;20262;-83
2022/01/22 08:49:10;;;;;;;32.40;18.07;;;6.50;99.90;;;;;;5086108;28;20185;-80
2022/01/22 08:51:38;;;;;;;32.93;18.67;;;6.50;99.90;;;;;;5074004;28;20181;-81
2022/01/22 08:54:05;;;;;;;32.97;18.70;;;6.40;99.90;;;;;;5074137;28;20422;-83
2022/01/22 08:56:31;;;;;;;32.10;18.30;;;6.40;99.90;;;;;;5056061;28;20459;-81
2022/01/22 08:58:56;;;;;;;33.43;19.40;;;6.40;99.90;;;;;;5074085;28;20503;-81
2022/01/22 09:01:22;;;;;;;33.70;19.30;;;6.40;99.90;;;;;;5079369;28;20210;-82
2022/01/22 09:03:49;;;;;;;28.93;17.50;;;6.40;99.90;;;;;;5094694;28;20603;-82
2022/01/22 09:06:17;;;;;;;33.90;19.07;;;6.50;99.90;;;;;;5095463;28;20413;-81
2022/01/22 09:08:45;;;;;;;36.40;19.53;;;6.50;99.90;;;;;;5093147;28;20480;-80
2022/01/22 09:11:11;;;;;;;38.53;18.63;;;6.50;99.90;;;;;;5093020;28;20419;-80
2022/01/22 09:13:37;;;;;;;30.00;18.63;;;6.60;99.90;;;;;;5093235;28;20442;-81
2022/01/22 09:16:03;;;;;;;34.23;18.20;;;6.60;99.90;;;;;;5094280;28;20466;-83
2022/01/22 09:18:29;;;;;;;34.73;20.27;;;6.60;99.90;;;;;;5094120;28;20451;-82
2022/01/22 09:21:02;;;;;;;35.03;19.37;;;6.70;99.90;;;;;;5090571;28;20881;-83
2022/01/22 09:23:29;;;;;;;39.67;20.00;;;6.90;99.90;;;;;;5093160;28;20202;-81
2022/01/22 09:25:55;;;;;;;34.93;20.70;;;7.00;99.90;;;;;;5089684;28;20443;-80
2022/01/22 09:28:21;;;;;;;39.93;20.13;;;7.20;99.90;;;;;;5081869;28;20429;-81
2022/01/22 09:30:47;;;;;;;36.97;20.20;;;7.30;99.90;;;;;;5065303;28;20236;-82
2022/01/22 09:33:13;;;;;;;35.87;20.80;;;7.40;99.90;;;;;;5068735;28;20218;-82
2022/01/22 09:35:39;;;;;;;39.37;20.53;;;7.40;99.90;;;;;;5078211;28;20909;-81
2022/01/22 09:38:04;;;;;;;35.80;20.50;;;7.40;99.90;;;;;;5085875;28;20186;-82
2022/01/22 09:40:31;;;;;;;34.60;20.13;;;7.40;99.90;;;;;;5080070;28;20198;-80
2022/01/22 09:42:59;;;;;;;31.73;19.87;;;7.30;99.90;;;;;;5075271;28;20263;-80
2022/01/22 09:45:25;;;;;;;32.37;18.83;;;7.40;99.90;;;;;;5089832;28;20416;-80
2022/01/22 09:47:51;;;;;;;29.63;19.50;;;7.40;99.90;;;;;;5073593;28;20420;-81
2022/01/22 09:50:19;;;;;;;28.43;18.87;;;7.40;99.90;;;;;;5092045;28;20409;-80
2022/01/22 09:52:45;;;;;;;32.43;19.30;;;7.20;99.90;;;;;;5092179;28;20210;-80
2022/01/22 09:55:11;;;;;;;32.97;19.70;;;7.20;99.90;;;;;;5091717;28;20946;-81
2022/01/22 09:57:38;;;;;;;35.10;19.40;;;7.20;99.90;;;;;;5082241;28;20420;-81
2022/01/22 10:00:07;;;;;;;36.37;20.37;;;7.30;99.90;;;;;;5074935;28;20452;-80
2022/01/22 10:02:43;;;;;;;29.77;18.93;;;7.30;99.90;;;;;;5053726;28;20858;-80
2022/01/22 10:05:36;;;;;;;32.43;18.80;;;7.20;99.90;;;;;;5054277;28;20803;-81
2022/01/22 10:08:28;;;;;;;26.97;16.87;;;7.10;99.90;;;;;;5072238;28;20478;-80
2022/01/22 10:10:56;;;;;;;36.23;19.70;;;7.00;99.90;;;;;;5071433;28;20487;-84
2022/01/22 10:13:38;;;;;;;34.10;19.90;;;7.10;99.90;;;;;;5053821;28;20441;-83
2022/01/22 10:16:15;;;;;;;33.67;19.13;;;7.00;99.90;;;;;;5083293;28;20486;-81
2022/01/22 10:18:41;;;;;;;32.20;19.97;;;7.00;99.90;;;;;;5091840;28;20416;-81
2022/01/22 10:21:10;;;;;;;37.03;20.60;;;7.10;99.90;;;;;;5073413;28;20980;-81
2022/01/22 10:23:39;;;;;;;34.90;18.70;;;7.00;99.90;;;;;;5091899;28;20780;-81
2022/01/22 10:26:09;;;;;;;38.73;22.03;;;7.00;99.90;;;;;;5091566;28;20979;-82
2022/01/22 10:28:47;;;;;;;39.53;22.63;;;7.00;99.90;;;;;;5073620;28;20455;-81
2022/01/22 10:31:24;;;;;;;37.13;20.33;;;7.10;99.90;;;;;;5073621;28;20428;-82
2022/01/22 10:34:10;;;;;;;37.50;21.87;;;7.00;99.90;;;;;;5073734;28;20484;-82
2022/01/22 10:36:36;;;;;;;34.13;21.50;;;6.90;99.90;;;;;;5091574;28;20412;-82
2022/01/22 10:39:22;;;;;;;34.50;19.10;;;6.90;99.90;;;;;;5091501;28;20412;-81
2022/01/22 10:41:48;;;;;;;32.93;19.40;;;6.80;99.90;;;;;;5073490;28;20510;-81
2022/01/22 10:44:18;;;;;;;33.40;19.77;;;7.00;99.90;;;;;;5091503;28;20468;-81
2022/01/22 10:46:46;;;;;;;32.37;19.67;;;7.00;99.90;;;;;;5073282;28;20178;-82
2022/01/22 10:49:14;;;;;;;33.07;19.90;;;7.00;99.90;;;;;;5071372;28;20413;-82
2022/01/22 10:51:49;;;;;;;37.20;18.87;;;7.10;99.90;;;;;;5074929;28;20463;-83
2022/01/22 10:54:17;;;;;;;39.43;20.90;;;7.20;99.90;;;;;;5071192;28;20440;-81
2022/01/22 10:56:42;;;;;;;33.80;18.97;;;7.20;99.90;;;;;;5052929;28;20935;-82
2022/01/22 10:59:11;;;;;;;37.50;18.43;;;7.20;99.90;;;;;;5071231;28;20421;-81
2022/01/22 11:01:59;;;;;;;33.47;18.30;;;7.30;99.90;;;;;;5071233;28;20189;-82
2022/01/22 11:04:34;;;;;;;33.50;17.33;;;7.30;99.90;;;;;;5071223;28;20449;-82
2022/01/22 11:07:05;;;;;;;28.40;17.80;;;7.40;99.90;;;;;;5070957;28;20741;-81
2022/01/22 11:09:32;;;;;;;31.97;17.13;;;7.40;99.90;;;;;;5075160;28;20517;-82
2022/01/22 11:11:59;;;;;;;28.77;16.70;;;7.40;99.90;;;;;;5074592;28;20420;-81
2022/01/22 11:14:27;;;;;;;36.67;17.53;;;7.40;99.90;;;;;;5056997;28;20477;-81
2022/01/22 11:16:53;;;;;;;25.00;16.87;;;7.50;99.90;;;;;;5074375;28;20781;-82
2022/01/22 11:19:30;;;;;;;23.43;15.07;;;7.80;99.90;;;;;;5056878;28;20428;-82
2022/01/22 11:21:57;;;;;;;24.70;13.93;;;8.00;99.90;;;;;;5074565;28;20421;-82
2022/01/22 11:24:25;;;;;;;26.90;14.57;;;8.00;99.90;;;;;;5094443;28;20432;-82
2022/01/22 11:26:53;;;;;;;23.43;12.83;;;8.10;99.90;;;;;;5076025;28;20515;-82
2022/01/22 11:29:23;;;;;;;18.43;11.77;;;8.40;99.90;;;;;;5076834;28;20417;-83
2022/01/22 11:31:50;;;;;;;23.03;12.77;;;8.80;99.90;;;;;;5094769;28;20420;-82
2022/01/22 11:34:19;;;;;;;21.40;11.93;;;9.00;99.90;;;;;;5093760;28;20428;-82
2022/01/22 11:37:07;;;;;;;23.30;12.60;;;8.90;99.90;;;;;;5076286;28;20413;-83
2022/01/22 11:39:33;;;;;;;22.83;12.10;;;8.90;99.90;;;;;;5069645;22;20549;-83
2022/01/22 11:41:59;;;;;;;20.20;13.00;;;8.60;99.90;;;;;;5045848;28;20453;-83
2022/01/22 11:44:46;;;;;;;22.43;13.40;;;8.50;99.90;;;;;;5086811;28;20183;-84
2022/01/22 11:47:22;;;;;;;22.30;12.60;;;8.40;99.90;;;;;;5057572;28;20425;-83
2022/01/22 11:50:07;;;;;;;21.63;12.87;;;8.20;99.90;;;;;;5065741;28;20448;-83
2022/01/22 11:52:36;;;;;;;25.20;14.00;;;8.00;99.90;;;;;;5050769;28;20939;-83
2022/01/22 11:55:09;;;;;;;23.30;14.30;;;7.90;99.90;;;;;;5066857;28;20422;-83
2022/01/22 11:57:36;;;;;;;28.53;14.20;;;7.90;99.90;;;;;;5056538;28;20413;-83
2022/01/22 12:00:20;;;;;;;27.47;14.70;;;7.90;99.90;;;;;;5058362;28;20469;-83
2022/01/22 12:03:09;;;;;;;21.60;14.30;;;7.90;99.90;;;;;;5060437;28;20429;-83
2022/01/22 12:05:56;;;;;;;24.37;15.90;;;7.70;99.90;;;;;;5059455;28;20414;-83
2022/01/22 12:08:22;;;;;;;27.13;16.00;;;7.70;99.90;;;;;;5059183;28;20441;-83
2022/01/22 12:16:44;;;;;;;27.43;15.10;;;7.70;99.90;;;;;;5078042;28;20501;-82
2022/01/22 12:19:49;;;;;;;25.67;15.40;;;7.60;99.90;;;;;;5057896;28;21159;-82
2022/01/22 12:22:34;;;;;;;28.13;16.03;;;7.50;99.90;;;;;;5078385;28;20412;-81
2022/01/22 12:25:08;;;;;;;25.17;14.30;;;7.60;99.90;;;;;;5076674;28;20529;-82
2022/01/22 12:27:49;;;;;;;26.07;13.50;;;7.60;99.90;;;;;;5051271;28;20442;-80
2022/01/22 12:30:16;;;;;;;26.30;15.93;;;7.70;99.90;;;;;;5058114;28;20489;-80
2022/01/22 12:32:44;;;;;;;27.07;15.87;;;7.70;99.90;;;;;;5058265;28;20435;-80
2022/01/22 12:35:14;;;;;;;25.60;13.60;;;7.60;99.90;;;;;;5075856;28;20420;-80
2022/01/22 12:37:43;;;;;;;23.50;13.73;;;7.70;99.90;;;;;;5075704;28;20992;-80
2022/01/22 12:40:10;;;;;;;26.53;14.50;;;7.80;99.90;;;;;;5076880;28;20475;-85
2022/01/22 12:42:55;;;;;;;22.87;13.10;;;7.90;99.90;;;;;;5058565;28;20418;-85
2022/01/22 12:45:24;;;;;;;25.55;17.15;;;7.80;99.90;;;;;;5057706;28;20460;-84
2022/01/22 12:47:50;;;;;;;23.20;13.83;;;7.80;99.90;;;;;;5058667;28;20217;-83
2022/01/22 12:50:23;;;;;;;23.77;14.90;;;7.90;99.90;;;;;;5058335;28;20532;-83
2022/01/22 12:52:51;;;;;;;25.40;13.27;;;7.90;99.90;;;;;;5076560;28;20425;-83
2022/01/22 12:55:24;;;;;;;22.03;14.07;;;7.90;99.90;;;;;;5076532;28;20417;-83
2022/01/22 12:57:50;;;;;;;28.07;15.20;;;7.70;99.90;;;;;;5076869;28;20420;-83
2022/01/22 13:00:18;;;;;;;27.47;16.07;;;7.80;99.90;;;;;;5076876;28;20461;-84
2022/01/22 13:02:54;;;;;;;24.33;14.27;;;7.80;99.90;;;;;;5077125;28;20196;-85
2022/01/22 13:05:24;;;;;;;27.20;17.07;;;7.90;99.90;;;;;;5057001;28;20401;-83
2022/01/22 13:07:56;;;;;;;29.93;18.20;;;7.90;99.90;;;;;;5057064;28;20486;-84
2022/01/22 13:10:27;;;;;;;23.60;14.90;;;7.80;99.90;;;;;;5056858;28;20413;-82
2022/01/22 13:12:58;;;;;;;26.23;16.70;;;7.80;99.90;;;;;;5075283;28;20417;-83
2022/01/22 13:15:26;;;;;;;28.03;15.57;;;7.80;99.90;;;;;;5056269;28;20433;-82
2022/01/22 13:17:59;;;;;;;27.93;15.80;;;7.80;99.90;;;;;;5074884;28;20474;-82
2022/01/22 13:20:34;;;;;;;26.17;16.47;;;7.70;99.90;;;;;;5057410;28;20997;-84
2022/01/22 13:23:11;;;;;;;29.17;16.93;;;7.80;99.90;;;;;;5075117;28;20467;-83
2022/01/22 13:25:37;;;;;;;26.43;15.80;;;7.80;99.90;;;;;;5074772;28;20786;-83
2022/01/22 13:28:11;;;;;;;29.13;16.13;;;7.80;99.90;;;;;;5074405;28;20496;-84
2022/01/22 13:30:44;;;;;;;26.57;15.93;;;7.70;99.90;;;;;;5055971;28;20853;-84
2022/01/22 13:33:18;;;;;;;26.77;16.90;;;7.70;99.90;;;;;;5055951;28;20977;-83
2022/01/22 13:49:51;;;;;;;35.57;19.60;;;7.70;99.90;;;;;;5074046;28;20494;-84
2022/01/22 13:52:19;;;;;;;30.40;19.50;;;7.60;99.90;;;;;;5054912;28;20413;-86
2022/01/22 13:54:51;;;;;;;32.23;19.90;;;7.60;99.90;;;;;;5054792;28;20873;-86
2022/01/22 13:57:22;;;;;;;29.87;18.03;;;7.60;99.90;;;;;;5054289;28;20421;-88
2022/01/22 13:59:54;;;;;;;37.47;21.13;;;7.60;99.90;;;;;;5072277;28;20473;-86
2022/01/22 14:05:00;;;;;;;31.53;20.27;;;7.70;99.90;;;;;;5072891;28;20417;-86
2022/01/22 14:07:33;;;;;;;33.50;19.63;;;7.70;99.90;;;;;;5054383;28;20919;-86
2022/01/22 14:10:35;;;;;;;38.83;20.90;;;7.60;99.90;;;;;;5054249;28;20457;-86
2022/01/22 14:13:13;;;;;;;37.13;21.33;;;7.50;99.90;;;;;;5044420;28;20429;-87
2022/01/22 14:15:45;;;;;;;30.77;18.60;;;7.40;99.90;;;;;;5053956;28;20797;-86
2022/01/22 14:18:20;;;;;;;36.93;21.30;;;7.40;99.90;;;;;;5071731;28;20410;-86
2022/01/22 14:21:07;;;;;;;35.87;23.23;;;7.50;99.90;;;;;;5058138;28;20461;-85
2022/01/22 14:23:36;;;;;;;37.67;21.70;;;7.40;99.90;;;;;;5034922;28;20514;-87
2022/01/22 14:26:16;;;;;;;38.87;23.13;;;7.30;99.90;;;;;;5034840;28;20431;-86
2022/01/22 14:28:57;;;;;;;38.13;21.47;;;7.30;99.90;;;;;;5034490;28;20492;-86
2022/01/22 14:31:50;;;;;;;35.73;20.67;;;7.40;99.90;;;;;;5063913;28;20433;-86
2022/01/22 14:34:46;;;;;;;36.47;22.40;;;7.40;99.90;;;;;;5054349;28;20423;-84
2022/01/22 14:37:29;;;;;;;38.50;22.77;;;7.30;99.90;;;;;;5072411;28;20881;-85
2022/01/22 14:45:33;;;;;;;37.77;23.60;;;7.20;99.90;;;;;;5076859;28;20420;-84
2022/01/22 14:48:02;;;;;;;38.27;22.63;;;7.10;99.90;;;;;;5058101;28;20436;-84